Time;durP1;ratioP1;P1;durP2;ratioP2;P2;SDS_P1;SDS_P2;PMS_P1;PMS_P2;Temp;Humidity;BMP_temperature;BMP_pressure;BME280_temperature;BME280_humidity;BME280_pressure;Samples;Min_cycle;Max_cycle;Signal;HPM_P1;HPM_P2
2023/03/30 05:30:57;;;;;;;2.30;1.60;;;;;;;0.71;75.12;99224.09;80111;1302;3013219;-66
2023/03/30 05:33:48;;;;;;;3.20;1.70;;;;;;;0.83;75.12;99227.25;77622;1306;3052767;-65
2023/03/30 05:36:35;;;;;;;4.50;1.80;;;;;;;0.84;74.68;99229.28;77769;1308;3050042;-66
2023/03/30 05:39:17;;;;;;;4.80;2.10;;;;;;;0.82;74.37;99230.19;77933;1301;3052580;-66
2023/03/30 05:42:04;;;;;;;3.00;2.00;;;;;;;0.80;74.79;99221.11;77895;1305;3051403;-67
2023/03/30 05:44:59;;;;;;;4.00;1.90;;;;;;;0.74;74.57;99233.33;76673;1300;3070574;-66
2023/03/30 05:48:05;;;;;;;3.00;2.20;;;;;;;0.78;74.83;99233.92;77546;1306;3051616;-70
2023/03/30 05:50:46;;;;;;;4.60;2.30;;;;;;;0.64;75.04;99241.34;77374;1311;3057177;-68
2023/03/30 05:53:32;;;;;;;8.40;3.50;;;;;;;0.51;75.67;99238.17;77956;1303;3050300;-67
2023/03/30 05:56:21;;;;;;;8.80;3.70;;;;;;;0.55;75.94;99243.08;77755;1303;3054815;-67
2023/03/30 05:58:53;;;;;;;6.90;3.80;;;;;;;0.64;75.75;99255.12;79527;1301;3013193;-67
2023/03/30 06:01:40;;;;;;;6.40;3.10;;;;;;;0.57;75.76;99258.20;78355;1300;3055411;-67
2023/03/30 06:04:08;;;;;;;6.80;3.50;;;;;;;0.50;76.40;99268.70;79679;1302;3012969;-70
2023/03/30 06:06:35;;;;;;;9.60;3.90;;;;;;;0.57;75.78;99269.75;79583;1301;3011636;-67
2023/03/30 06:09:05;;;;;;;8.20;3.80;;;;;;;0.57;76.60;99262.17;78312;1300;3055234;-67
2023/03/30 06:11:33;;;;;;;7.80;3.60;;;;;;;0.69;76.44;99262.92;79621;1300;3012904;-66
2023/03/30 06:14:09;;;;;;;6.20;3.00;;;;;;;0.63;76.66;99267.20;78330;1300;3053254;-67
2023/03/30 06:16:39;;;;;;;5.30;3.30;;;;;;;0.53;77.04;99262.60;79554;1299;3011517;-69
2023/03/30 06:19:07;;;;;;;8.00;3.80;;;;;;;0.62;76.92;99267.41;78657;1301;3051626;-69
2023/03/30 06:21:34;;;;;;;5.80;3.10;;;;;;;0.60;77.23;99270.38;79753;1297;3013285;-71
2023/03/30 06:24:28;;;;;;;5.10;3.10;;;;;;;0.72;77.14;99275.27;78341;1300;3052676;-68
2023/03/30 06:26:55;;;;;;;7.00;3.80;;;;;;;0.59;76.94;99276.61;79526;1297;3013255;-68
2023/03/30 06:29:22;;;;;;;7.70;4.70;;;;;;;0.66;76.48;99271.27;79332;1298;3011799;-68
2023/03/30 06:31:50;;;;;;;7.50;4.10;;;;;;;0.61;77.04;99272.60;78415;1300;3026002;-65
2023/03/30 06:34:46;;;;;;;10.50;4.60;;;;;;;0.63;76.74;99277.03;78198;1300;3052658;-67
2023/03/30 06:37:14;;;;;;;8.40;4.30;;;;;;;0.62;76.77;99271.02;79514;1300;3013244;-69
2023/03/30 06:39:41;;;;;;;7.70;4.10;;;;;;;0.62;76.31;99273.09;79794;1297;3011862;-68
2023/03/30 06:42:08;;;;;;;7.10;4.30;;;;;;;0.58;76.64;99278.54;78573;1300;3025934;-71
2023/03/30 06:44:53;;;;;;;7.60;4.00;;;;;;;0.60;76.65;99269.36;78699;1300;3050138;-67
2023/03/30 06:47:21;;;;;;;6.30;3.50;;;;;;;0.69;76.73;99263.11;79638;1300;3013394;-65
2023/03/30 06:49:48;;;;;;;5.80;2.70;;;;;;;0.82;76.02;99265.38;79575;1300;3011946;-67
2023/03/30 06:52:46;;;;;;;4.40;2.50;;;;;;;0.74;75.38;99262.98;78131;1301;3050680;-71
2023/03/30 06:55:13;;;;;;;3.20;2.10;;;;;;;0.77;75.39;99271.00;79802;1302;3013328;-70
2023/03/30 06:57:40;;;;;;;4.20;2.30;;;;;;;0.69;75.66;99276.90;79822;1296;3011615;-69
2023/03/30 07:00:12;;;;;;;8.20;3.30;;;;;;;0.56;75.82;99279.78;78404;1300;3050403;-69
2023/03/30 07:02:42;;;;;;;7.70;3.50;;;;;;;0.51;76.19;99279.36;79517;1298;3013161;-69
2023/03/30 07:05:23;;;;;;;7.90;3.60;;;;;;;0.58;76.25;99274.04;78400;1300;3051680;-69
2023/03/30 07:07:53;;;;;;;6.10;3.00;;;;;;;0.51;76.14;99267.82;79824;1297;3011644;-68
2023/03/30 07:10:21;;;;;;;8.00;3.20;;;;;;;0.67;76.56;99263.33;78538;1301;3052232;-69
2023/03/30 07:12:48;;;;;;;6.20;2.40;;;;;;;0.62;76.36;99272.91;79767;1301;3012867;-69
2023/03/30 07:15:17;;;;;;;4.40;2.60;;;;;;;0.50;76.26;99271.11;79786;1296;3012185;-68
2023/03/30 07:17:45;;;;;;;8.40;3.20;;;;;;;0.51;76.38;99275.41;78829;1297;3049709;-71
2023/03/30 07:20:19;;;;;;;5.60;3.10;;;;;;;0.49;76.71;99277.70;79899;1296;3011795;-69
2023/03/30 07:23:10;;;;;;;7.10;2.80;;;;;;;0.49;76.81;99266.66;78411;1297;3051313;-71
2023/03/30 07:25:38;;;;;;;4.40;2.30;;;;;;;0.57;76.46;99260.43;79684;1297;3013212;-66
2023/03/30 07:28:13;;;;;;;6.60;3.50;;;;;;;0.60;76.00;99264.68;78523;1296;3053168;-66
2023/03/30 07:30:40;;;;;;;6.10;3.70;;;;;;;0.75;75.45;99262.09;79969;1296;3018398;-72
2023/03/30 07:33:13;;;;;;;4.90;2.80;;;;;;;0.89;75.10;99257.61;79242;1291;3011889;-66
2023/03/30 07:35:46;;;;;;;4.80;2.00;;;;;;;0.99;74.41;99258.23;80039;1291;3013436;-68
2023/03/30 07:38:16;;;;;;;2.30;1.60;;;;;;;0.91;73.69;99257.42;78594;1291;3050070;-67
2023/03/30 07:40:47;;;;;;;;;;;;;;;0.79;74.01;99258.88;79868;1291;3011494;-68
2023/03/30 07:43:17;;;;;;;2.30;1.50;;;;;;;0.68;74.63;99254.85;78705;1295;3049494;-68
2023/03/30 07:45:48;;;;;;;2.20;1.60;;;;;;;0.75;74.12;99252.79;79928;1295;3011799;-70
2023/03/30 07:48:25;;;;;;;3.40;1.80;;;;;;;0.72;73.70;99246.98;78816;1292;3054338;-68
2023/03/30 07:51:09;;;;;;;2.10;1.30;;;;;;;0.79;73.56;99246.13;79948;1293;3013239;-69
2023/03/30 07:53:41;;;;;;;1.60;1.30;;;;;;;0.78;73.79;99256.34;78606;1293;3056578;-69
2023/03/30 07:56:16;;;;;;;2.40;1.30;;;;;;;0.72;74.12;99247.67;79585;1292;3049681;-67
2023/03/30 07:58:46;;;;;;;2.00;1.40;;;;;;;0.68;74.08;99250.02;79750;1292;3011625;-66
2023/03/30 08:01:15;;;;;;;2.00;1.30;;;;;;;0.70;73.99;99251.17;79252;1295;3013857;-68
2023/03/30 08:04:05;;;;;;;4.00;2.20;;;;;;;0.74;73.94;99251.08;78526;1292;3052334;-67
2023/03/30 08:06:33;;;;;;;1.90;1.30;;;;;;;0.66;73.97;99258.34;79771;1295;3011808;-67
2023/03/30 08:09:03;;;;;;;2.20;1.50;;;;;;;0.61;74.48;99250.70;78620;1292;3028196;-68
2023/03/30 08:11:30;;;;;;;3.00;1.80;;;;;;;0.60;74.79;99247.27;79792;1291;3013296;-68
2023/03/30 08:13:58;;;;;;;2.00;1.20;;;;;;;0.74;74.68;99245.41;79729;1291;3011525;-68
2023/03/30 08:16:25;;;;;;;4.30;1.70;;;;;;;0.75;74.28;99242.77;78540;1294;3054787;-66
2023/03/30 08:18:53;;;;;;;1.90;1.50;;;;;;;0.87;73.95;99243.89;79649;1290;3012973;-65
2023/03/30 08:21:23;;;;;;;2.80;1.40;;;;;;;0.87;74.10;99237.66;79763;1294;3011590;-65
2023/03/30 08:23:52;;;;;;;3.40;1.50;;;;;;;0.83;74.42;99236.74;78565;1292;3069675;-66
2023/03/30 08:26:19;;;;;;;2.90;1.70;;;;;;;0.80;74.19;99238.34;79762;1292;3013447;-66
2023/03/30 08:28:46;;;;;;;2.60;1.80;;;;;;;0.74;73.79;99240.57;79740;1291;3011677;-67
2023/03/30 08:31:17;;;;;;;2.80;1.50;;;;;;;0.83;73.43;99236.74;78592;1295;3051926;-65
2023/03/30 08:33:44;;;;;;;1.30;1.20;;;;;;;0.82;73.18;99237.09;79775;1295;3011817;-66
2023/03/30 08:36:13;;;;;;;1.70;1.20;;;;;;;0.74;73.47;99243.84;78680;1294;3026637;-68
2023/03/30 08:38:41;;;;;;;1.80;1.40;;;;;;;0.77;73.68;99238.09;79861;1296;3012996;-70
2023/03/30 08:41:32;;;;;;;2.90;1.60;;;;;;;0.91;73.35;99232.57;79995;1293;3011961;-66
2023/03/30 08:44:19;;;;;;;2.60;1.50;;;;;;;0.92;73.15;99226.52;78620;1292;3056868;-68
2023/03/30 08:46:48;;;;;;;2.40;1.40;;;;;;;0.86;73.21;99225.78;78581;1291;3049223;-66
2023/03/30 08:49:17;;;;;;;2.40;1.70;;;;;;;0.83;73.19;99225.52;79893;1292;3013924;-65
2023/03/30 08:51:47;;;;;;;3.70;1.40;;;;;;;0.86;72.79;99224.06;79232;1294;3011558;-68
2023/03/30 08:54:15;;;;;;;2.50;1.30;;;;;;;0.89;72.46;99218.48;79882;1296;3013521;-66
2023/03/30 08:56:59;;;;;;;2.00;1.30;;;;;;;0.96;72.33;99219.52;79342;1292;3011664;-66
2023/03/30 08:59:35;;;;;;;2.40;1.40;;;;;;;0.95;72.46;99219.34;78658;1294;3069793;-67
2023/03/30 09:02:11;;;;;;;4.30;1.40;;;;;;;1.09;72.18;99224.34;78528;1291;3052826;-68
2023/03/30 09:05:00;;;;;;;2.20;1.20;;;;;;;0.94;71.84;99220.95;78625;1292;3057756;-67
2023/03/30 09:07:31;;;;;;;1.80;1.30;;;;;;;0.85;71.60;99224.27;78488;1294;3049473;-66
2023/03/30 09:09:58;;;;;;;1.80;1.30;;;;;;;0.82;71.55;99232.79;79869;1291;3012953;-66
2023/03/30 09:12:55;;;;;;;2.40;1.10;;;;;;;0.87;71.31;99238.34;78809;1295;3051602;-67
2023/03/30 09:15:40;;;;;;;2.00;1.30;;;;;;;0.89;71.38;99226.41;78508;1294;3053063;-65
2023/03/30 09:18:40;;;;;;;1.90;1.40;;;;;;;0.99;71.47;99224.27;78615;1294;3054183;-66
2023/03/30 09:21:11;;;;;;;2.60;1.60;;;;;;;1.04;70.36;99222.58;78398;1302;3068592;-67
2023/03/30 09:23:38;;;;;;;2.30;1.50;;;;;;;1.08;70.14;99217.48;79770;1293;3012995;-68
2023/03/30 09:26:10;;;;;;;2.60;1.30;;;;;;;0.99;69.78;99215.11;78806;1292;3048734;-69
2023/03/30 09:29:02;;;;;;;3.20;1.10;;;;;;;1.00;69.43;99215.09;79791;1291;3013415;-67
2023/03/30 09:31:40;;;;;;;2.40;1.40;;;;;;;0.95;69.18;99220.90;78936;1294;3051294;-66
2023/03/30 09:34:27;;;;;;;1.90;1.10;;;;;;;0.89;69.27;99222.08;78469;1295;3053597;-67
2023/03/30 09:36:59;;;;;;;2.60;1.20;;;;;;;0.97;68.78;99229.14;78433;1296;3052224;-66
2023/03/30 09:39:26;;;;;;;1.40;1.00;;;;;;;0.89;68.81;99235.90;79724;1296;3011555;-70
2023/03/30 09:42:00;;;;;;;2.50;1.40;;;;;;;0.89;68.71;99248.33;78668;1292;3051376;-66
2023/03/30 09:44:34;;;;;;;3.20;1.50;;;;;;;0.89;68.61;99234.86;78522;1296;3057772;-65
2023/03/30 09:47:06;;;;;;;2.50;1.80;;;;;;;0.86;68.39;99239.41;79840;1291;3011848;-65
2023/03/30 09:49:37;;;;;;;4.80;2.10;;;;;;;0.83;68.37;99236.05;78443;1291;3053188;-69
2023/03/30 09:52:06;;;;;;;5.80;1.80;;;;;;;0.97;68.23;99235.52;79797;1291;3011679;-67
2023/03/30 09:54:38;;;;;;;1.80;1.40;;;;;;;0.83;68.36;99232.08;78576;1296;3052256;-67
2023/03/30 09:57:31;;;;;;;1.90;1.30;;;;;;;0.90;68.20;99233.47;78554;1295;3052219;-67
2023/03/30 09:59:59;;;;;;;1.90;1.40;;;;;;;0.96;68.50;99227.09;78495;1291;3069349;-67
2023/03/30 10:02:31;;;;;;;6.30;3.20;;;;;;;0.80;68.57;99238.02;79741;1292;3011636;-67
2023/03/30 10:05:01;;;;;;;9.20;4.40;;;;;;;0.73;69.38;99230.93;78486;1291;3056374;-69
2023/03/30 10:07:30;;;;;;;11.40;4.00;;;;;;;0.79;69.73;99226.13;79796;1291;3012865;-65
2023/03/30 10:09:59;;;;;;;8.30;4.30;;;;;;;0.71;70.13;99229.94;78543;1291;3027321;-66
2023/03/30 10:12:26;;;;;;;9.40;2.90;;;;;;;0.66;70.28;99220.77;79780;1295;3011669;-66
2023/03/30 10:14:54;;;;;;;5.80;3.30;;;;;;;0.58;70.81;99219.39;79751;1296;3013356;-64
2023/03/30 10:17:27;;;;;;;7.40;3.20;;;;;;;0.61;70.85;99214.51;78601;1296;3070112;-67
2023/03/30 10:20:26;;;;;;;6.90;2.90;;;;;;;0.63;70.98;99214.45;79879;1291;3018479;-66
2023/03/30 10:23:03;;;;;;;5.00;2.20;;;;;;;0.72;70.39;99204.23;78564;1294;3048078;-66
2023/03/30 10:25:32;;;;;;;3.30;1.90;;;;;;;0.75;70.14;99200.03;78469;1296;3053369;-66
2023/03/30 10:28:01;;;;;;;3.50;2.00;;;;;;;0.83;69.81;99195.16;80011;1295;3015556;-66
2023/03/30 10:30:31;;;;;;;2.80;1.60;;;;;;;0.91;69.65;99194.64;78563;1296;3052168;-68
2023/03/30 10:33:00;;;;;;;6.90;2.60;;;;;;;0.82;69.81;99201.94;79693;1291;3013404;-67
2023/03/30 10:35:34;;;;;;;6.30;2.80;;;;;;;0.84;70.31;99197.23;79231;1291;3012028;-67
2023/03/30 10:38:01;;;;;;;2.90;2.00;;;;;;;0.83;70.19;99191.55;79796;1291;3013414;-66
2023/03/30 10:40:37;;;;;;;4.60;1.90;;;;;;;0.93;70.19;99185.43;78366;1297;3050192;-67
2023/03/30 10:43:27;;;;;;;4.90;1.90;;;;;;;0.87;70.19;99185.42;78484;1291;3055364;-67
2023/03/30 10:45:55;;;;;;;3.40;1.70;;;;;;;0.93;70.49;99181.64;78576;1295;3049599;-68
2023/03/30 10:48:34;;;;;;;3.20;1.80;;;;;;;1.01;70.25;99179.34;79852;1296;3013014;-67
2023/03/30 10:51:24;;;;;;;4.40;2.20;;;;;;;1.04;70.22;99180.84;78482;1296;3068512;-69
2023/03/30 10:54:06;;;;;;;4.00;1.60;;;;;;;0.74;71.49;99174.89;78542;1295;3051367;-66
2023/03/30 10:56:38;;;;;;;3.50;1.60;;;;;;;0.72;71.79;99168.19;78595;1292;3056532;-67
2023/03/30 10:59:20;;;;;;;3.30;1.70;;;;;;;0.71;72.03;99173.58;79637;1293;3013063;-66
2023/03/30 11:02:26;;;;;;;1.70;1.30;;;;;;;0.61;72.20;99162.79;78493;1291;3054460;-67
2023/03/30 11:05:03;;;;;;;2.50;1.60;;;;;;;0.65;72.04;99157.69;78498;1295;3050396;-69
2023/03/30 11:07:58;;;;;;;2.90;1.80;;;;;;;0.80;71.98;99160.78;78454;1295;3052773;-67
2023/03/30 11:10:54;;;;;;;4.10;2.20;;;;;;;0.84;71.54;99159.44;78424;1297;3053491;-68
2023/03/30 11:13:42;;;;;;;4.20;2.20;;;;;;;0.77;71.43;99153.94;78589;1297;3070404;-70
2023/03/30 11:16:17;;;;;;;4.30;1.70;;;;;;;0.86;71.65;99150.42;78771;1292;3053339;-70
2023/03/30 11:18:56;;;;;;;2.20;1.60;;;;;;;0.85;71.41;99149.95;79889;1291;3012678;-65
2023/03/30 11:21:55;;;;;;;2.70;1.70;;;;;;;0.87;71.57;99146.45;78554;1296;3051331;-65
2023/03/30 11:24:24;;;;;;;5.10;1.80;;;;;;;0.95;70.95;99161.92;78601;1295;3054142;-68
2023/03/30 11:26:52;;;;;;;3.70;1.80;;;;;;;0.86;71.22;99141.81;79657;1297;3012876;-68
2023/03/30 11:29:44;;;;;;;2.80;1.80;;;;;;;0.86;71.42;99139.04;79278;1294;3011576;-66
2023/03/30 11:32:34;;;;;;;4.10;1.70;;;;;;;0.72;72.33;99143.90;78615;1296;3052829;-68
2023/03/30 11:35:16;;;;;;;1.50;1.40;;;;;;;0.76;72.52;99131.55;78512;1295;3070468;-67
2023/03/30 11:38:02;;;;;;;3.20;2.20;;;;;;;0.75;72.70;99130.89;78352;1295;3052033;-67
2023/03/30 11:41:00;;;;;;;4.50;2.40;;;;;;;0.78;72.82;99129.61;78462;1295;3057204;-67
2023/03/30 11:43:29;;;;;;;4.10;2.50;;;;;;;0.89;72.70;99131.41;78588;1295;3050282;-67
2023/03/30 11:46:06;;;;;;;7.10;2.80;;;;;;;0.91;72.32;99129.27;79657;1291;3013489;-66
2023/03/30 11:48:47;;;;;;;7.50;3.90;;;;;;;0.84;72.59;99136.86;78522;1295;3052716;-68
2023/03/30 11:51:36;;;;;;;4.90;2.60;;;;;;;0.96;72.60;99130.00;78615;1296;3052151;-69
2023/03/30 11:54:16;;;;;;;4.10;2.70;;;;;;;0.90;72.50;99122.56;78472;1295;3069637;-68
2023/03/30 11:57:09;;;;;;;5.70;2.90;;;;;;;1.09;72.06;99119.13;78440;1295;3051733;-66
2023/03/30 11:59:44;;;;;;;5.10;2.10;;;;;;;1.05;72.13;99118.39;78503;1291;3058068;-67
2023/03/30 12:02:13;;;;;;;2.80;2.00;;;;;;;1.07;71.77;99112.10;79715;1291;3013584;-66
2023/03/30 12:04:46;;;;;;;4.00;2.00;;;;;;;1.18;71.82;99118.72;78487;1291;3052954;-69
2023/03/30 12:07:44;;;;;;;3.80;2.40;;;;;;;1.12;71.54;99116.10;78457;1297;3051000;-67
2023/03/30 12:10:38;;;;;;;4.70;2.70;;;;;;;1.13;71.72;99115.05;78500;1296;3053439;-67
2023/03/30 12:13:26;;;;;;;8.20;3.60;;;;;;;0.98;72.09;99114.92;78493;1295;3052006;-66
2023/03/30 12:16:19;;;;;;;10.40;4.50;;;;;;;1.14;71.87;99108.78;78406;1291;3069190;-73
2023/03/30 12:19:08;;;;;;;9.60;3.10;;;;;;;1.21;71.60;99108.95;79944;1291;3011946;-69
2023/03/30 12:21:42;;;;;;;4.40;2.60;;;;;;;1.18;70.98;99117.83;78534;1291;3058211;-67
2023/03/30 12:24:53;;;;;;;3.80;1.80;;;;;;;1.16;71.31;99114.63;79582;1291;3012915;-68
2023/03/30 12:27:21;;;;;;;3.60;2.10;;;;;;;1.24;70.94;99108.18;78498;1295;3053582;-65
2023/03/30 12:29:51;;;;;;;3.70;2.00;;;;;;;1.06;71.81;99106.78;79634;1292;3011591;-67
2023/03/30 12:32:26;;;;;;;3.60;2.30;;;;;;;1.21;71.59;99101.20;78495;1295;3026169;-66
2023/03/30 12:34:55;;;;;;;6.30;3.20;;;;;;;1.22;71.41;99105.64;78496;1291;3054762;-68
2023/03/30 12:37:32;;;;;;;6.40;2.90;;;;;;;1.34;70.86;99108.95;79979;1291;3012937;-67
2023/03/30 12:40:21;;;;;;;8.70;2.80;;;;;;;1.33;70.73;99101.02;78354;1291;3052784;-69
2023/03/30 12:43:13;;;;;;;10.20;2.80;;;;;;;1.35;71.06;99095.11;78270;1297;3057739;-66
2023/03/30 12:46:04;;;;;;;5.40;2.30;;;;;;;1.39;71.07;99098.79;78471;1291;3050217;-66
2023/03/30 12:49:06;;;;;;;4.00;2.20;;;;;;;1.46;70.78;99092.19;78541;1296;3053833;-66
2023/03/30 12:52:08;;;;;;;2.50;1.80;;;;;;;1.47;70.75;99097.50;78480;1296;3049946;-66
2023/03/30 12:55:00;;;;;;;3.60;1.60;;;;;;;1.57;70.23;99091.70;78513;1295;3052509;-66
2023/03/30 12:57:41;;;;;;;3.00;1.90;;;;;;;1.44;70.35;99102.45;78526;1296;3052487;-68
2023/03/30 13:00:28;;;;;;;3.20;2.20;;;;;;;1.36;70.82;99092.31;78457;1296;3069680;-70
2023/03/30 13:03:17;;;;;;;5.00;2.30;;;;;;;1.39;70.33;99093.29;78513;1296;3053029;-68
2023/03/30 13:05:48;;;;;;;5.70;2.80;;;;;;;1.40;70.41;99101.52;78449;1294;3057731;-68
2023/03/30 13:08:33;;;;;;;4.90;2.40;;;;;;;1.33;70.62;99084.80;79557;1298;3011741;-68
2023/03/30 13:11:10;;;;;;;7.10;3.50;;;;;;;1.43;70.45;99076.93;78503;1293;3053185;-70
2023/03/30 13:13:58;;;;;;;8.50;3.00;;;;;;;1.57;69.92;99071.84;78354;1294;3049687;-67
2023/03/30 13:17:02;;;;;;;5.50;2.50;;;;;;;1.52;70.02;99069.56;79444;1294;3052893;-69
2023/03/30 13:19:30;;;;;;;4.00;2.40;;;;;;;1.40;70.37;99071.14;78079;1298;3050894;-71
2023/03/30 13:22:09;;;;;;;4.30;2.10;;;;;;;1.40;70.43;99064.41;79607;1294;3011725;-69
2023/03/30 13:24:40;;;;;;;6.00;2.70;;;;;;;1.41;70.21;99059.90;78413;1294;3057080;-72
2023/03/30 13:27:20;;;;;;;3.70;2.30;;;;;;;1.52;70.21;99065.62;79673;1296;3013251;-65
2023/03/30 13:30:11;;;;;;;7.40;3.10;;;;;;;1.55;69.90;99063.45;78419;1294;3053449;-68
2023/03/30 13:33:11;;;;;;;5.20;2.60;;;;;;;1.52;70.11;99067.69;78334;1296;3050520;-70
2023/03/30 13:35:53;;;;;;;7.70;3.80;;;;;;;1.41;70.51;99065.59;78477;1296;3051047;-70
2023/03/30 13:38:51;;;;;;;8.40;3.70;;;;;;;1.49;70.48;99057.23;78456;1296;3052558;-69
2023/03/30 13:41:34;;;;;;;8.80;4.20;;;;;;;1.50;70.47;99057.06;78484;1291;3069076;-65
2023/03/30 13:44:10;;;;;;;5.30;3.20;;;;;;;1.58;70.03;99059.55;78402;1295;3052544;-66
2023/03/30 13:47:13;;;;;;;7.80;3.70;;;;;;;1.55;69.65;99062.41;78451;1294;3058153;-66
2023/03/30 13:49:56;;;;;;;6.10;3.70;;;;;;;1.47;70.19;99058.84;78060;1301;3049711;-68
2023/03/30 13:52:35;;;;;;;10.90;4.70;;;;;;;1.41;70.37;99063.36;78477;1291;3054853;-66
2023/03/30 13:55:04;;;;;;;12.20;4.50;;;;;;;1.43;70.45;99055.52;78616;1293;3048525;-64
2023/03/30 13:57:37;;;;;;;11.60;4.50;;;;;;;1.53;70.46;99051.61;79761;1291;3011562;-66
2023/03/30 14:00:38;;;;;;;9.60;5.10;;;;;;;1.54;70.41;99052.92;78510;1297;3051350;-65
2023/03/30 14:03:40;;;;;;;12.20;5.70;;;;;;;1.48;70.66;99051.05;78524;1297;3070805;-66
2023/03/30 14:06:16;;;;;;;9.40;4.50;;;;;;;1.31;71.32;99049.30;78477;1295;3050221;-68
2023/03/30 14:08:46;;;;;;;11.60;5.30;;;;;;;1.46;71.22;99045.74;78497;1291;3055072;-67
2023/03/30 14:11:33;;;;;;;10.50;4.40;;;;;;;1.38;71.19;99043.42;78504;1295;3048910;-68
2023/03/30 14:14:02;;;;;;;8.80;4.00;;;;;;;1.52;70.95;99040.25;78417;1296;3053470;-68
2023/03/30 14:16:36;;;;;;;7.90;3.90;;;;;;;1.67;70.78;99034.44;79736;1297;3013324;-69
2023/03/30 14:19:35;;;;;;;6.70;3.70;;;;;;;1.66;70.76;99043.06;78721;1297;3052657;-66
2023/03/30 14:22:15;;;;;;;4.90;3.00;;;;;;;1.60;71.24;99038.62;78647;1295;3068659;-66
2023/03/30 14:24:56;;;;;;;5.20;2.70;;;;;;;1.61;71.00;99041.69;78430;1297;3052083;-71
2023/03/30 14:27:39;;;;;;;4.00;2.20;;;;;;;1.45;71.76;99039.08;78402;1295;3056691;-70
2023/03/30 14:30:21;;;;;;;5.00;2.80;;;;;;;1.52;71.58;99029.19;78492;1294;3050434;-70
2023/03/30 14:33:05;;;;;;;7.00;3.50;;;;;;;1.62;71.34;99019.90;78475;1297;3053249;-70
2023/03/30 14:36:01;;;;;;;5.70;3.30;;;;;;;1.70;71.19;99024.34;79616;1295;3013448;-71
2023/03/30 14:38:37;;;;;;;7.00;3.80;;;;;;;1.66;70.97;99024.09;78569;1294;3053367;-70
2023/03/30 14:41:10;;;;;;;5.30;2.80;;;;;;;1.64;71.08;99021.06;79857;1291;3011619;-70
2023/03/30 14:43:39;;;;;;;4.60;3.20;;;;;;;1.52;71.29;99027.96;78456;1291;3069718;-70
2023/03/30 14:46:10;;;;;;;3.80;2.70;;;;;;;1.50;71.36;99025.96;79670;1296;3013309;-68
2023/03/30 14:48:40;;;;;;;5.90;2.60;;;;;;;1.57;71.25;99024.73;78623;1296;3056366;-68
2023/03/30 14:51:23;;;;;;;5.00;2.50;;;;;;;1.63;71.47;99019.35;79840;1291;3011666;-68
2023/03/30 14:53:51;;;;;;;6.00;3.00;;;;;;;1.73;71.34;99013.36;78502;1296;3053674;-69
2023/03/30 14:56:20;;;;;;;5.10;3.10;;;;;;;1.71;71.29;99014.45;79885;1296;3011902;-70
2023/03/30 14:58:50;;;;;;;4.40;2.20;;;;;;;1.72;71.42;99011.63;79273;1295;3011842;-70
2023/03/30 15:01:19;;;;;;;5.30;2.80;;;;;;;1.69;71.51;99016.23;79896;1296;3013258;-65
2023/03/30 15:03:48;;;;;;;4.90;2.40;;;;;;;1.65;71.60;99016.53;78624;1295;3069505;-66
2023/03/30 15:06:18;;;;;;;4.30;2.30;;;;;;;1.75;71.51;99014.32;79937;1291;3013818;-64
2023/03/30 15:08:47;;;;;;;3.20;2.40;;;;;;;1.76;71.36;99012.05;79043;1296;3011572;-67
2023/03/30 15:11:23;;;;;;;3.90;2.00;;;;;;;1.78;71.30;99012.33;79681;1291;3013867;-70
2023/03/30 15:13:54;;;;;;;3.50;2.00;;;;;;;1.72;71.53;99015.10;78643;1291;3052317;-69
2023/03/30 15:16:24;;;;;;;3.30;2.00;;;;;;;1.80;71.43;99013.11;79988;1295;3011533;-67
2023/03/30 15:18:57;;;;;;;5.30;2.60;;;;;;;1.82;71.38;99012.69;78749;1296;3051409;-68
2023/03/30 15:21:24;;;;;;;;;;;;;;;1.82;71.34;99012.39;79959;1294;3011724;-70
2023/03/30 15:23:52;;;;;;;4.10;2.10;;;;;;;1.68;71.41;99009.86;78666;1295;3069209;-70
2023/03/30 15:26:20;;;;;;;4.00;1.70;;;;;;;1.77;71.65;99012.54;79956;1296;3013814;-71
2023/03/30 15:28:49;;;;;;;3.80;2.50;;;;;;;1.77;71.71;99007.17;79799;1292;3012736;-65
2023/03/30 15:31:21;;;;;;;6.10;1.90;;;;;;;1.76;71.57;99018.09;78692;1291;3052544;-69
2023/03/30 15:33:53;;;;;;;4.40;2.50;;;;;;;1.70;71.60;99014.84;79751;1297;3019852;-69
2023/03/30 15:36:23;;;;;;;5.80;3.10;;;;;;;1.75;71.56;99013.65;78668;1295;3053690;-73
2023/03/30 15:38:58;;;;;;;4.80;2.40;;;;;;;1.75;71.61;99013.61;78508;1295;3070029;-65
2023/03/30 15:41:42;;;;;;;3.10;2.20;;;;;;;1.75;71.46;99013.96;79835;1291;3013830;-66
2023/03/30 15:44:11;;;;;;;7.50;2.90;;;;;;;1.74;71.76;99011.73;78814;1296;3049761;-67
2023/03/30 15:46:38;;;;;;;11.80;4.70;;;;;;;1.72;71.69;99005.61;80016;1291;3013405;-67
2023/03/30 15:49:05;;;;;;;10.80;5.80;;;;;;;1.75;71.61;99001.52;79893;1292;3011514;-63
2023/03/30 15:51:37;;;;;;;13.20;6.10;;;;;;;1.83;71.36;98999.89;78722;1296;3051533;-68
2023/03/30 15:54:12;;;;;;;12.50;6.50;;;;;;;1.76;71.06;99000.81;79997;1295;3011654;-67
2023/03/30 15:56:48;;;;;;;10.40;5.30;;;;;;;1.81;71.12;98996.18;78634;1291;3051521;-68
2023/03/30 15:59:18;;;;;;;11.00;6.00;;;;;;;1.83;70.92;98999.20;79512;1292;3011655;-65
2023/03/30 16:01:54;;;;;;;11.40;5.20;;;;;;;1.87;71.13;98994.42;79968;1295;3013659;-66
2023/03/30 16:04:23;;;;;;;6.00;3.30;;;;;;;1.92;70.71;99000.46;78612;1295;3053719;-67
2023/03/30 16:06:51;;;;;;;5.00;2.70;;;;;;;2.05;70.08;99004.71;80046;1296;3013899;-66
2023/03/30 16:09:18;;;;;;;5.70;2.30;;;;;;;2.00;70.04;99003.14;80041;1293;3011635;-66
2023/03/30 16:11:49;;;;;;;4.40;2.60;;;;;;;1.96;70.21;99002.95;78984;1297;3068324;-67
2023/03/30 16:14:19;;;;;;;6.40;4.00;;;;;;;2.05;69.85;99001.62;79957;1292;3019104;-73
2023/03/30 16:16:47;;;;;;;5.70;3.10;;;;;;;2.03;69.88;99004.26;78673;1292;3049938;-72
2023/03/30 16:19:16;;;;;;;7.90;3.60;;;;;;;2.12;69.62;99005.50;79949;1296;3013727;-69
2023/03/30 16:21:42;;;;;;;12.10;4.70;;;;;;;2.05;69.72;99004.91;80152;1295;3011668;-68
2023/03/30 16:24:10;;;;;;;14.90;5.30;;;;;;;2.12;69.66;99006.20;78899;1291;3051869;-68
2023/03/30 16:26:39;;;;;;;15.30;6.00;;;;;;;2.10;69.75;99011.30;79963;1296;3013522;-67
2023/03/30 16:29:16;;;;;;;12.20;5.90;;;;;;;2.19;69.71;99008.40;80023;1295;3011880;-69
2023/03/30 16:31:46;;;;;;;11.90;5.80;;;;;;;2.24;69.67;99007.73;78663;1295;3050270;-67
2023/03/30 16:34:13;;;;;;;11.80;5.60;;;;;;;2.19;69.47;99009.61;79859;1295;3013130;-69
2023/03/30 16:36:40;;;;;;;13.60;6.30;;;;;;;2.26;69.53;99010.07;80757;1291;3011627;-65
2023/03/30 16:39:21;;;;;;;12.40;6.10;;;;;;;2.36;69.35;99013.00;78694;1297;3052407;-69
2023/03/30 16:41:51;;;;;;;14.30;6.30;;;;;;;2.29;68.96;99018.77;78690;1295;3067970;-66
2023/03/30 16:44:19;;;;;;;15.20;6.90;;;;;;;2.27;69.47;99013.16;80060;1292;3013941;-64
2023/03/30 16:46:46;;;;;;;13.90;4.70;;;;;;;2.31;69.10;99017.16;79831;1291;3011630;-68
2023/03/30 16:49:15;;;;;;;8.90;4.30;;;;;;;2.32;69.21;99019.86;78556;1291;3053884;-69
2023/03/30 16:51:43;;;;;;;7.20;3.70;;;;;;;2.39;69.07;99014.65;80074;1295;3012753;-68
2023/03/30 16:54:19;;;;;;;6.10;3.40;;;;;;;2.39;69.09;99014.45;78617;1295;3054130;-67
2023/03/30 16:56:47;;;;;;;6.00;3.10;;;;;;;2.43;69.05;99015.02;79902;1291;3013527;-67
